Main page
METAR-TAF:

METAR-TAF

Airports :

Lynden Pindling International Airport

Nassau, The Bahamas

latitude: 25-03N, longitude: 077-28W, elevation: 3 m

Current weather observation

The report was made 47 minutes ago, at 00:00 UTC
Wind 7 kt from the Northeast
Temperature 22°C
Humidity 65%
Pressure 1020 hPa
Visibility 10 km or more
Broken clouds at a height of 4000 ft

METAR: MYNN 160000Z 04007KT 9999 BKN040 22/15 A3011

Time: 19:47 (00:47 UTC)

Forecast

The report was made 2 hours and 47 minutes ago, at 22:00 UTC
Forecast valid from 16 at 00 UTC to 16 at 24 UTC
Wind 5 kt from the North/Northeast
Visibility 10 km or more
Scattered clouds at a height of 3000 ft

TAF: MYNN 152200Z 1600/1624 02005KT 9999 SCT030

Weather observations and forecasts of more than 4000 airports (METAR and TAF reports).

The available stations are represented by yellow and red dots on the map.

Hover mouse over dot to see the name of the station.

Then click to see weather observations and forecasts.

To change the map : click on the green buttons with a black cross to zoom in, on the green button with a dash to zoom out, or on the green arrows for adjacent maps.


METAR-TAF: